createdAt,value
2023-12-18T00:01:52.543Z,15.27
2023-12-18T00:04:40.010Z,14.87
2023-12-18T00:07:28.376Z,14.50
2023-12-18T00:10:16.887Z,13.60
2023-12-18T00:13:04.347Z,12.27
2023-12-18T00:15:51.723Z,14.03
2023-12-18T00:18:39.579Z,16.10
2023-12-18T00:21:26.982Z,16.30
2023-12-18T00:24:14.394Z,15.43
2023-12-18T00:27:01.776Z,13.40
2023-12-18T00:29:49.278Z,15.47
2023-12-18T00:32:36.514Z,15.67
2023-12-18T00:35:23.865Z,14.47
2023-12-18T00:38:11.196Z,14.70
2023-12-18T00:40:58.758Z,16.03
2023-12-18T00:43:46.145Z,15.87
2023-12-18T00:46:33.584Z,15.17
2023-12-18T00:49:20.824Z,14.27
2023-12-18T00:52:09.290Z,15.37
2023-12-18T00:54:56.505Z,13.33
2023-12-18T00:57:44.032Z,16.27
2023-12-18T01:00:31.668Z,15.37
2023-12-18T01:03:19.180Z,15.40
2023-12-18T01:06:06.749Z,11.83
2023-12-18T01:08:53.983Z,13.10
2023-12-18T01:11:41.197Z,13.67
2023-12-18T01:14:28.497Z,13.73
2023-12-18T01:17:17.760Z,14.70
2023-12-18T01:20:08.132Z,13.63
2023-12-18T01:23:02.242Z,15.13
2023-12-18T01:25:51.956Z,13.80
2023-12-18T01:28:41.634Z,14.27
2023-12-18T01:31:29.005Z,15.60
2023-12-18T01:34:16.388Z,14.40
2023-12-18T01:37:05.172Z,14.47
2023-12-18T01:39:52.653Z,14.70
2023-12-18T01:42:46.397Z,14.00
2023-12-18T01:45:33.634Z,12.87
2023-12-18T01:48:21.313Z,15.97
2023-12-18T01:51:09.033Z,15.33
2023-12-18T01:53:59.449Z,14.93
2023-12-18T01:56:47.768Z,17.37
2023-12-18T01:59:36.064Z,15.03
2023-12-18T02:02:23.561Z,15.27
2023-12-18T02:05:11.004Z,13.10
2023-12-18T02:07:59.189Z,13.57
2023-12-18T02:10:47.187Z,15.40
2023-12-18T02:13:34.752Z,13.60
2023-12-18T02:16:23.429Z,14.43
2023-12-18T02:19:32.031Z,14.80
2023-12-18T02:22:19.823Z,15.60
2023-12-18T02:25:07.688Z,14.83
2023-12-18T02:27:55.735Z,14.17
2023-12-18T02:30:43.437Z,14.67
2023-12-18T02:33:30.898Z,14.73
2023-12-18T02:36:18.450Z,16.00
2023-12-18T02:39:05.942Z,14.30
2023-12-18T02:41:53.356Z,15.70
2023-12-18T02:44:40.599Z,15.50
2023-12-18T02:47:28.758Z,16.03
2023-12-18T02:50:16.997Z,15.33
2023-12-18T02:53:04.886Z,16.73
2023-12-18T02:55:52.268Z,15.07
2023-12-18T02:58:39.791Z,14.37
2023-12-18T03:01:27.146Z,15.73
2023-12-18T03:04:14.755Z,15.23
2023-12-18T03:07:01.999Z,15.03
2023-12-18T03:09:49.336Z,15.67
2023-12-18T03:12:36.722Z,17.67
2023-12-18T03:15:24.235Z,16.07
2023-12-18T03:18:11.575Z,14.80
2023-12-18T03:20:58.924Z,16.13
2023-12-18T03:23:46.510Z,15.17
2023-12-18T03:26:33.737Z,15.20
2023-12-18T03:29:21.470Z,15.83
2023-12-18T03:32:08.702Z,13.27
2023-12-18T03:34:56.064Z,15.47
2023-12-18T03:37:43.852Z,14.03
2023-12-18T03:40:31.410Z,15.10
2023-12-18T03:43:18.966Z,15.27
2023-12-18T03:46:07.291Z,16.97
2023-12-18T03:48:54.602Z,16.23
2023-12-18T03:51:42.504Z,17.00
2023-12-18T03:54:29.974Z,15.70
2023-12-18T03:57:17.321Z,13.80
2023-12-18T04:00:05.955Z,14.73
2023-12-18T04:02:53.619Z,17.37
2023-12-18T04:05:41.103Z,16.50
2023-12-18T04:08:28.650Z,15.03
2023-12-18T04:11:16.864Z,16.23
2023-12-18T04:14:04.471Z,13.47
2023-12-18T04:16:51.746Z,15.67
2023-12-18T04:19:39.303Z,14.70
2023-12-18T04:22:26.735Z,15.67
2023-12-18T04:25:14.175Z,14.47
2023-12-18T04:28:01.561Z,17.37
2023-12-18T04:30:49.042Z,16.83
2023-12-18T04:33:40.480Z,15.17
2023-12-18T04:36:27.818Z,14.60
2023-12-18T04:39:15.623Z,15.37
2023-12-18T04:42:03.348Z,15.07
2023-12-18T04:44:51.178Z,15.53
2023-12-18T04:47:38.618Z,14.33
2023-12-18T04:50:26.149Z,15.40
2023-12-18T04:53:13.387Z,14.80
2023-12-18T04:56:00.862Z,14.43
2023-12-18T04:58:48.239Z,17.43
2023-12-18T05:01:35.482Z,16.70
2023-12-18T05:04:22.853Z,17.67
2023-12-18T05:07:12.391Z,16.23
2023-12-18T05:09:59.833Z,16.50
2023-12-18T05:12:47.596Z,14.60
2023-12-18T05:15:35.150Z,16.47
2023-12-18T05:18:23.004Z,17.87
2023-12-18T05:21:14.590Z,15.70
2023-12-18T05:24:01.824Z,15.87
2023-12-18T05:26:49.185Z,17.47
2023-12-18T05:29:36.520Z,16.73
2023-12-18T05:32:24.036Z,17.20
2023-12-18T05:35:11.938Z,14.97
2023-12-18T05:37:59.213Z,19.33
2023-12-18T05:40:46.464Z,15.90
2023-12-18T05:43:34.236Z,16.53
2023-12-18T05:46:21.559Z,17.33
2023-12-18T05:49:09.278Z,17.87
2023-12-18T05:51:56.775Z,17.03
2023-12-18T05:54:44.357Z,15.10
2023-12-18T05:57:31.954Z,18.57
2023-12-18T06:00:20.619Z,15.47
2023-12-18T06:03:08.246Z,16.50
2023-12-18T06:05:55.815Z,15.93
2023-12-18T06:08:43.065Z,17.10
2023-12-18T06:11:30.328Z,20.13
2023-12-18T06:14:17.767Z,16.97
2023-12-18T06:17:05.701Z,16.93
2023-12-18T06:19:53.546Z,20.97
2023-12-18T06:22:41.191Z,17.37
2023-12-18T06:25:29.627Z,19.70
2023-12-18T06:28:17.109Z,16.60
2023-12-18T06:31:04.733Z,16.53
2023-12-18T06:33:53.156Z,16.60
2023-12-18T06:36:40.478Z,16.43
2023-12-18T06:39:27.785Z,17.23
2023-12-18T06:42:15.348Z,18.67
2023-12-18T06:45:02.729Z,16.63
2023-12-18T06:47:49.996Z,18.30
2023-12-18T06:50:37.574Z,16.10
2023-12-18T06:53:25.080Z,17.53
2023-12-18T06:56:15.179Z,16.83
2023-12-18T06:59:02.937Z,17.80
2023-12-18T07:01:50.549Z,17.77
2023-12-18T07:04:37.883Z,17.43
2023-12-18T07:07:25.613Z,18.33
2023-12-18T07:10:13.333Z,16.57
2023-12-18T07:13:01.634Z,18.10
2023-12-18T07:15:49.567Z,17.60
2023-12-18T07:18:37.029Z,17.13
2023-12-18T07:21:24.633Z,18.97
2023-12-18T07:24:12.602Z,17.80
2023-12-18T07:27:00.508Z,17.97
2023-12-18T07:29:47.827Z,17.43
2023-12-18T07:32:35.210Z,17.90
2023-12-18T07:35:22.867Z,18.90
2023-12-18T07:38:10.219Z,21.13
2023-12-18T07:41:00.727Z,19.97
2023-12-18T07:43:51.440Z,17.90
2023-12-18T07:46:39.018Z,19.00
2023-12-18T07:49:29.397Z,21.13
2023-12-18T07:52:18.367Z,18.23
2023-12-18T07:55:06.681Z,16.97
2023-12-18T07:57:54.311Z,18.03
2023-12-18T08:00:42.171Z,20.77
2023-12-18T08:03:29.566Z,18.40
2023-12-18T08:06:16.930Z,18.63
2023-12-18T08:09:04.484Z,19.10
2023-12-18T08:11:51.815Z,18.10
2023-12-18T08:14:39.173Z,18.17
2023-12-18T08:17:27.640Z,19.87
2023-12-18T08:20:17.385Z,19.30
2023-12-18T08:23:04.963Z,21.33
2023-12-18T08:25:52.344Z,18.83
2023-12-18T08:28:43.523Z,20.77
2023-12-18T08:31:30.918Z,21.73
2023-12-18T08:34:18.390Z,24.87
2023-12-18T08:37:07.604Z,21.10
2023-12-18T08:39:55.421Z,20.50
2023-12-18T08:42:43.002Z,20.77
2023-12-18T08:45:30.852Z,21.53
2023-12-18T08:48:18.618Z,17.13
2023-12-18T08:51:05.964Z,18.57
2023-12-18T08:53:55.800Z,18.50
2023-12-18T08:56:43.488Z,18.73
2023-12-18T08:59:31.062Z,17.23
2023-12-18T09:02:18.429Z,18.70
2023-12-18T09:05:06.165Z,20.47
2023-12-18T09:07:53.580Z,19.10
2023-12-18T09:10:41.660Z,19.77
2023-12-18T09:13:29.323Z,18.87
2023-12-18T09:16:17.118Z,23.67
2023-12-18T09:19:04.485Z,18.10
2023-12-18T09:21:51.963Z,17.63
2023-12-18T09:24:39.379Z,20.07
2023-12-18T09:27:26.682Z,20.17
2023-12-18T09:30:14.917Z,19.77
2023-12-18T09:33:02.575Z,20.33
2023-12-18T09:35:49.938Z,19.13
2023-12-18T09:38:38.365Z,19.43
2023-12-18T09:41:27.629Z,21.00
2023-12-18T09:44:14.991Z,21.57
2023-12-18T09:47:02.625Z,19.57
2023-12-18T09:49:50.896Z,18.70
2023-12-18T09:52:42.971Z,22.07
2023-12-18T09:55:34.040Z,19.77
2023-12-18T09:58:25.311Z,22.17
2023-12-18T10:01:12.911Z,21.20
2023-12-18T10:04:00.419Z,21.00
2023-12-18T10:06:49.500Z,22.67
2023-12-18T10:09:37.401Z,22.77
2023-12-18T10:12:24.954Z,20.27
2023-12-18T10:15:12.865Z,23.50
2023-12-18T10:18:00.265Z,20.70
2023-12-18T10:20:49.815Z,21.40
2023-12-18T10:23:37.202Z,21.60
2023-12-18T10:26:24.602Z,20.47
2023-12-18T10:29:14.688Z,22.60
2023-12-18T10:32:02.416Z,22.07
2023-12-18T10:34:52.095Z,22.10
2023-12-18T10:37:47.758Z,23.50
2023-12-18T10:40:35.688Z,24.77
2023-12-18T10:43:25.503Z,22.13
2023-12-18T10:46:13.594Z,21.23
2023-12-18T10:49:02.814Z,24.43
2023-12-18T10:51:52.477Z,22.07
2023-12-18T10:54:41.778Z,22.40
2023-12-18T10:57:31.519Z,23.60
2023-12-18T11:00:20.382Z,22.37
2023-12-18T11:03:08.422Z,23.10
2023-12-18T11:05:56.767Z,23.80
2023-12-18T11:08:45.187Z,25.33
2023-12-18T11:11:34.910Z,23.33
2023-12-18T11:15:00.241Z,24.70
2023-12-18T11:18:17.525Z,23.00
2023-12-18T11:21:06.745Z,24.27
2023-12-18T11:26:49.383Z,28.53
2023-12-18T11:29:43.088Z,25.43
2023-12-18T11:32:47.649Z,28.37
2023-12-18T11:35:37.451Z,27.73
2023-12-18T11:38:26.428Z,29.40
2023-12-18T11:41:41.152Z,29.03
2023-12-18T11:44:33.740Z,29.93
2023-12-18T11:47:22.294Z,31.60
2023-12-18T11:50:10.260Z,30.33
2023-12-18T11:52:57.945Z,33.30
2023-12-18T11:55:49.118Z,35.87
2023-12-18T11:58:38.344Z,31.93
2023-12-18T12:01:27.492Z,29.63
2023-12-18T12:04:17.879Z,27.30
2023-12-18T12:07:05.339Z,32.30
2023-12-18T12:10:01.680Z,32.43
2023-12-18T12:12:59.548Z,29.50
2023-12-18T12:15:57.561Z,30.73
2023-12-18T12:18:47.357Z,27.53
2023-12-18T12:21:42.848Z,32.23
2023-12-18T12:24:40.083Z,26.83
2023-12-18T12:27:28.041Z,29.53
2023-12-18T12:30:15.698Z,28.30
2023-12-18T12:33:04.673Z,30.93
2023-12-18T12:35:54.384Z,30.80
2023-12-18T12:38:42.117Z,27.20
2023-12-18T12:41:29.331Z,29.80
2023-12-18T12:44:16.726Z,26.73
2023-12-18T12:47:05.813Z,28.80
2023-12-18T12:49:53.508Z,31.53
2023-12-18T12:52:44.580Z,30.43
2023-12-18T12:55:31.831Z,33.80
2023-12-18T12:58:19.104Z,37.00
2023-12-18T13:01:08.745Z,32.10
2023-12-18T13:03:56.821Z,33.57
2023-12-18T13:06:44.145Z,33.67
2023-12-18T13:09:31.522Z,33.37
2023-12-18T13:12:20.333Z,31.57
2023-12-18T13:15:08.218Z,31.63
2023-12-18T13:17:58.170Z,36.77
2023-12-18T13:20:46.223Z,37.33
2023-12-18T13:23:33.607Z,36.30
2023-12-18T13:26:21.715Z,37.30
2023-12-18T13:29:08.976Z,38.13
2023-12-18T13:31:56.403Z,36.90
2023-12-18T13:34:43.720Z,36.10
2023-12-18T13:37:31.477Z,40.60
2023-12-18T13:40:18.778Z,39.23
2023-12-18T13:43:06.021Z,43.10
2023-12-18T13:45:53.803Z,36.43
2023-12-18T13:48:41.473Z,35.63
2023-12-18T13:51:29.057Z,39.23
2023-12-18T13:54:16.323Z,42.10
2023-12-18T13:57:04.218Z,37.80
2023-12-18T13:59:52.574Z,50.10
2023-12-18T14:02:39.938Z,35.60
2023-12-18T14:05:27.558Z,38.63
2023-12-18T14:08:15.233Z,34.53
2023-12-18T14:11:02.616Z,34.07
2023-12-18T14:13:50.087Z,36.40
2023-12-18T14:16:37.769Z,37.03
2023-12-18T14:19:25.747Z,32.53
2023-12-18T14:22:13.181Z,35.77
2023-12-18T14:25:02.539Z,36.43
2023-12-18T14:27:50.239Z,31.07
2023-12-18T14:30:37.786Z,35.53
2023-12-18T14:33:25.469Z,34.20
2023-12-18T14:36:13.240Z,32.20
2023-12-18T14:39:01.020Z,31.93
2023-12-18T14:41:49.526Z,32.20
2023-12-18T14:44:36.781Z,29.93
2023-12-18T14:47:24.069Z,31.63
2023-12-18T14:50:11.821Z,31.77
2023-12-18T14:53:01.481Z,31.23
2023-12-18T14:55:48.746Z,30.23
2023-12-18T14:58:36.271Z,30.33
2023-12-18T15:01:24.102Z,31.23
2023-12-18T15:04:16.206Z,28.03
2023-12-18T15:07:09.907Z,31.10
2023-12-18T15:09:57.351Z,28.43
2023-12-18T15:12:45.040Z,29.87
2023-12-18T15:15:32.872Z,29.70
2023-12-18T15:18:20.410Z,28.47
2023-12-18T15:21:08.056Z,28.73
2023-12-18T15:23:55.360Z,28.83
2023-12-18T15:26:42.594Z,29.20
2023-12-18T15:29:31.350Z,32.90
2023-12-18T15:32:18.671Z,29.73
2023-12-18T15:35:06.296Z,28.60
2023-12-18T15:37:54.683Z,28.83
2023-12-18T15:40:41.983Z,28.30
2023-12-18T15:43:29.543Z,29.60
2023-12-18T15:46:16.883Z,28.13
2023-12-18T15:49:04.447Z,30.97
2023-12-18T15:51:53.956Z,28.13
2023-12-18T15:54:42.068Z,28.33
2023-12-18T15:57:30.058Z,27.13
2023-12-18T16:00:17.866Z,28.33
2023-12-18T16:03:05.727Z,29.13
2023-12-18T16:05:53.471Z,28.37
2023-12-18T16:08:40.973Z,28.60
2023-12-18T16:11:28.181Z,29.33
2023-12-18T16:14:15.489Z,31.93
2023-12-18T16:17:02.853Z,29.17
2023-12-18T16:19:51.096Z,32.10
2023-12-18T16:22:38.406Z,33.17
2023-12-18T16:25:25.782Z,32.60
2023-12-18T16:28:13.119Z,30.73
2023-12-18T16:31:00.481Z,31.10
2023-12-18T16:33:48.222Z,32.43
2023-12-18T16:36:35.641Z,35.87
2023-12-18T16:39:23.297Z,31.30
2023-12-18T16:42:14.864Z,36.23
2023-12-18T16:45:02.762Z,30.93
2023-12-18T16:47:50.356Z,30.80
2023-12-18T16:50:38.055Z,34.30
2023-12-18T16:53:25.959Z,29.83
2023-12-18T16:56:14.520Z,33.90
2023-12-18T16:59:01.953Z,31.13
2023-12-18T17:01:50.207Z,30.70
2023-12-18T17:04:37.867Z,32.33
2023-12-18T17:07:25.515Z,32.10
2023-12-18T17:10:13.241Z,31.20
2023-12-18T17:13:00.733Z,31.17
2023-12-18T17:15:48.524Z,30.77
2023-12-18T17:18:35.962Z,32.83
2023-12-18T17:21:23.239Z,32.53
2023-12-18T17:24:10.499Z,32.77
2023-12-18T17:26:58.011Z,30.40
2023-12-18T17:29:45.453Z,29.20
2023-12-18T17:32:32.750Z,30.40
2023-12-18T17:35:20.110Z,32.70
2023-12-18T17:38:07.426Z,31.30
2023-12-18T17:40:55.159Z,30.20
2023-12-18T17:43:42.476Z,33.47
2023-12-18T17:46:29.699Z,30.87
2023-12-18T17:49:17.375Z,32.10
2023-12-18T17:52:05.446Z,32.13
2023-12-18T17:54:53.781Z,32.27
2023-12-18T17:57:41.392Z,32.70
2023-12-18T18:00:28.924Z,32.20
2023-12-18T18:03:17.158Z,30.80
2023-12-18T18:06:04.776Z,33.20
2023-12-18T18:08:52.132Z,33.03
2023-12-18T18:11:39.348Z,31.50
2023-12-18T18:14:26.897Z,34.33
2023-12-18T18:17:16.182Z,31.83
2023-12-18T18:20:04.124Z,32.57
2023-12-18T18:22:51.547Z,30.33
2023-12-18T18:25:40.348Z,38.00
2023-12-18T18:28:28.356Z,32.70
2023-12-18T18:31:15.707Z,35.67
2023-12-18T18:34:04.821Z,33.53
2023-12-18T18:36:52.239Z,32.90
2023-12-18T18:39:40.688Z,35.23
2023-12-18T18:42:27.998Z,32.70
2023-12-18T18:45:16.252Z,35.10
2023-12-18T18:48:05.187Z,34.90
2023-12-18T18:50:52.597Z,37.30
2023-12-18T18:53:40.055Z,37.57
2023-12-18T18:56:31.500Z,32.20
2023-12-18T18:59:18.706Z,34.73
2023-12-18T19:02:07.983Z,32.23
2023-12-18T19:04:55.310Z,33.43
2023-12-18T19:07:43.710Z,34.17
2023-12-18T19:10:31.192Z,33.43
2023-12-18T19:13:19.813Z,31.57
2023-12-18T19:16:07.879Z,34.53
2023-12-18T19:18:55.585Z,33.10
2023-12-18T19:21:43.809Z,35.00
2023-12-18T19:24:33.129Z,33.20
2023-12-18T19:27:20.959Z,36.40
2023-12-18T19:30:09.078Z,34.30
2023-12-18T19:32:56.520Z,31.23
2023-12-18T19:35:44.201Z,34.43
2023-12-18T19:38:32.021Z,36.17
2023-12-18T19:41:20.906Z,34.93
2023-12-18T19:44:08.142Z,35.27
2023-12-18T19:46:56.496Z,37.00
2023-12-18T19:49:43.868Z,34.83
2023-12-18T19:52:32.631Z,36.57
2023-12-18T19:55:19.972Z,33.37
2023-12-18T19:58:07.389Z,37.17
2023-12-18T20:00:54.727Z,34.93
2023-12-18T20:03:42.137Z,35.57
2023-12-18T20:06:30.544Z,36.83
2023-12-18T20:09:18.370Z,36.27
2023-12-18T20:12:06.619Z,36.07
2023-12-18T20:14:54.270Z,37.80
2023-12-18T20:17:41.985Z,36.77
2023-12-18T20:20:30.668Z,39.17
2023-12-18T20:23:18.273Z,37.60
2023-12-18T20:26:05.696Z,39.33
2023-12-18T20:28:53.165Z,38.40
2023-12-18T20:31:40.581Z,36.57
2023-12-18T20:34:27.892Z,43.60
2023-12-18T20:37:15.609Z,39.90
2023-12-18T20:40:02.992Z,40.67
2023-12-18T20:42:51.421Z,40.30
2023-12-18T20:45:39.695Z,41.60
2023-12-18T20:48:27.040Z,41.80
2023-12-18T20:51:14.368Z,42.10
2023-12-18T20:54:01.641Z,41.07
2023-12-18T20:56:48.886Z,40.97
2023-12-18T20:59:36.315Z,44.83
2023-12-18T21:02:25.139Z,41.40
2023-12-18T21:05:12.859Z,38.70
2023-12-18T21:08:00.117Z,48.50
2023-12-18T21:10:47.471Z,44.57
2023-12-18T21:13:34.907Z,46.53
2023-12-18T21:16:22.608Z,43.47
2023-12-18T21:19:09.926Z,44.97
2023-12-18T21:21:57.786Z,45.87
2023-12-18T21:24:45.767Z,46.00
2023-12-18T21:27:33.880Z,42.93
2023-12-18T21:30:21.920Z,46.27
2023-12-18T21:33:11.872Z,45.30
2023-12-18T21:35:59.479Z,46.03
2023-12-18T21:38:47.889Z,42.67
2023-12-18T21:41:35.346Z,46.63
2023-12-18T21:44:22.870Z,44.33
2023-12-18T21:47:10.970Z,48.13
2023-12-18T21:49:59.847Z,48.67
2023-12-18T21:52:47.389Z,43.30
2023-12-18T21:55:34.949Z,40.83
2023-12-18T21:58:22.155Z,43.50
2023-12-18T22:01:09.710Z,44.23
2023-12-18T22:03:57.298Z,44.17
2023-12-18T22:06:45.040Z,45.13
2023-12-18T22:09:32.452Z,47.40
2023-12-18T22:12:19.814Z,47.43
2023-12-18T22:15:07.896Z,47.13
2023-12-18T22:17:55.270Z,44.03
2023-12-18T22:20:42.641Z,46.47
2023-12-18T22:23:30.217Z,46.00
2023-12-18T22:26:17.446Z,46.33
2023-12-18T22:29:04.857Z,48.20
2023-12-18T22:31:52.379Z,49.40
2023-12-18T22:34:42.933Z,53.80
2023-12-18T22:37:30.591Z,49.83
2023-12-18T22:40:17.786Z,56.03
2023-12-18T22:43:05.145Z,49.90
2023-12-18T22:45:53.994Z,53.07
2023-12-18T22:48:42.312Z,50.63
2023-12-18T22:51:29.742Z,54.37
2023-12-18T22:54:17.558Z,55.80
2023-12-18T22:57:05.239Z,58.83
2023-12-18T22:59:52.517Z,59.77
2023-12-18T23:02:40.350Z,54.90
2023-12-18T23:05:28.731Z,56.37
2023-12-18T23:08:17.076Z,53.33
2023-12-18T23:11:04.605Z,57.10
2023-12-18T23:13:52.369Z,58.30
2023-12-18T23:16:42.198Z,53.13
2023-12-18T23:19:29.586Z,50.67
2023-12-18T23:22:16.897Z,52.90
2023-12-18T23:25:05.423Z,46.93
2023-12-18T23:27:52.821Z,50.93
2023-12-18T23:30:40.101Z,44.07
2023-12-18T23:33:31.163Z,45.90
2023-12-18T23:36:19.315Z,44.73
2023-12-18T23:39:07.036Z,47.10
2023-12-18T23:41:54.277Z,41.30
2023-12-18T23:44:42.359Z,40.90
2023-12-18T23:47:29.657Z,44.73
2023-12-18T23:50:17.894Z,44.60
2023-12-18T23:53:05.136Z,42.73
2023-12-18T23:55:52.434Z,41.10
2023-12-18T23:58:39.764Z,39.07
